createdAt,value
2016-11-20T00:00:12.231Z,49.38
2016-11-20T00:01:12.213Z,47.49
2016-11-20T00:02:12.199Z,47.2
2016-11-20T00:03:12.183Z,48.25
2016-11-20T00:04:12.170Z,47.3
2016-11-20T00:05:12.153Z,47.3
2016-11-20T00:06:12.139Z,46.64
2016-11-20T00:07:12.123Z,46.55
2016-11-20T00:08:12.106Z,45.98
2016-11-20T00:09:12.091Z,45.03
2016-11-20T00:10:12.077Z,42.85
2016-11-20T00:11:12.061Z,43.33
2016-11-20T00:12:12.046Z,43.99
2016-11-20T00:13:12.033Z,44.27
2016-11-20T00:14:12.015Z,44.37
2016-11-20T00:15:11.997Z,43.8
2016-11-20T00:16:11.984Z,42.76
2016-11-20T00:17:11.971Z,42.66
2016-11-20T00:18:11.953Z,43.8
2016-11-20T00:19:11.936Z,43.9
2016-11-20T00:20:11.924Z,43.04
2016-11-20T00:21:11.909Z,42.95
2016-11-20T00:22:11.895Z,42.85
2016-11-20T00:23:11.877Z,42.57
2016-11-20T00:24:11.860Z,42.76
2016-11-20T00:25:11.845Z,43.04
2016-11-20T00:26:11.830Z,41.82
2016-11-20T00:27:11.814Z,41.63
2016-11-20T00:28:11.799Z,41.72
2016-11-20T00:29:11.783Z,41.34
2016-11-20T00:30:11.767Z,41.63
2016-11-20T00:31:11.756Z,42
2016-11-20T00:32:11.741Z,42.57
2016-11-20T00:33:11.719Z,42.95
2016-11-20T00:34:11.705Z,42.85
2016-11-20T00:35:11.689Z,43.14
2016-11-20T00:36:11.673Z,44.09
2016-11-20T00:37:11.659Z,44.27
2016-11-20T00:38:11.644Z,43.71
2016-11-20T00:39:11.629Z,42.76
2016-11-20T00:40:11.615Z,41.72
2016-11-20T00:41:11.595Z,41.25
2016-11-20T00:42:11.580Z,41.34
2016-11-20T00:43:11.567Z,40.39
2016-11-20T00:44:11.549Z,39.36
2016-11-20T00:45:11.539Z,38.79
2016-11-20T00:46:11.517Z,38.31
2016-11-20T00:47:11.504Z,38.22
2016-11-20T00:48:11.486Z,38.41
2016-11-20T00:49:11.472Z,37.74
2016-11-20T00:50:11.458Z,37.74
2016-11-20T00:51:11.441Z,36.99
2016-11-20T00:52:11.423Z,37.08
2016-11-20T00:53:11.410Z,36.9
2016-11-20T00:54:11.393Z,36.99
2016-11-20T00:55:11.381Z,37.55
2016-11-20T00:56:11.363Z,36.8
2016-11-20T00:57:11.348Z,36.99
2016-11-20T00:58:11.331Z,36.99
2016-11-20T00:59:11.316Z,36.9
2016-11-20T01:00:11.301Z,36.42
2016-11-20T01:01:11.284Z,36.33
2016-11-20T01:02:11.272Z,36.99
2016-11-20T01:03:11.254Z,36.9
2016-11-20T01:04:11.238Z,37.65
2016-11-20T01:05:11.221Z,38.03
2016-11-20T01:06:11.214Z,37.84
2016-11-20T01:07:11.192Z,38.03
2016-11-20T01:08:11.178Z,37.27
2016-11-20T01:09:11.160Z,37.37
2016-11-20T01:10:11.147Z,37.74
2016-11-20T01:11:11.128Z,38.5
2016-11-20T01:12:11.115Z,39.64
2016-11-20T01:13:11.101Z,40.39
2016-11-20T01:14:11.081Z,40.68
2016-11-20T01:15:11.073Z,40.96
2016-11-20T01:16:11.052Z,41.15
2016-11-20T01:17:11.036Z,41.34
2016-11-20T01:18:11.019Z,41.82
2016-11-20T01:19:11.007Z,42.76
2016-11-20T01:20:10.990Z,43.42
2016-11-20T01:21:10.976Z,44.09
2016-11-20T01:22:10.958Z,44.48
2016-11-20T01:23:10.947Z,45.03
2016-11-20T01:24:10.956Z,44.84
2016-11-20T01:25:10.914Z,44.65
2016-11-20T01:26:10.898Z,44.2
2016-11-20T01:27:10.883Z,44.1
2016-11-20T01:28:10.866Z,44.46
2016-11-20T01:29:10.852Z,44.48
2016-11-20T01:30:10.836Z,44.39
2016-11-20T01:31:10.817Z,44.48
2016-11-20T01:32:10.803Z,44.77
2016-11-20T01:33:10.790Z,44.58
2016-11-20T01:34:10.774Z,44.2
2016-11-20T01:35:10.761Z,44.58
2016-11-20T01:36:10.743Z,44.86
2016-11-20T01:37:10.728Z,45.34
2016-11-20T01:38:10.715Z,45.62
2016-11-20T01:39:10.699Z,45.53
2016-11-20T01:40:10.683Z,45.81
2016-11-20T01:41:10.671Z,46.56
2016-11-20T01:42:10.653Z,47.04
2016-11-20T01:43:10.634Z,46.75
2016-11-20T01:44:10.937Z,47.23
2016-11-20T01:45:10.611Z,48.65
2016-11-20T01:46:10.590Z,48.93
2016-11-20T01:47:10.584Z,49.22
2016-11-20T01:48:10.561Z,49.5
2016-11-20T01:49:10.547Z,50.07
2016-11-20T01:50:10.531Z,50.26
2016-11-20T01:51:10.515Z,50.63
2016-11-20T01:52:10.533Z,51.39
2016-11-20T01:53:10.484Z,51.3
2016-11-20T01:54:10.471Z,51.39
2016-11-20T01:55:10.457Z,51.77
2016-11-20T01:56:10.442Z,51.87
2016-11-20T01:57:10.426Z,52.15
2016-11-20T01:58:10.409Z,52.25
2016-11-20T01:59:10.396Z,53.28
2016-11-20T02:00:10.380Z,52.91
2016-11-20T02:01:10.367Z,53.19
2016-11-20T02:02:10.348Z,53.47
2016-11-20T02:03:10.336Z,54.33
2016-11-20T02:04:10.322Z,54.23
2016-11-20T02:05:10.405Z,55.08
2016-11-20T02:06:10.289Z,55.56
2016-11-20T02:07:10.275Z,55.65
2016-11-20T02:08:10.261Z,56.22
2016-11-20T02:09:10.241Z,55.37
2016-11-20T02:10:10.230Z,55.37
2016-11-20T02:11:10.211Z,56.51
2016-11-20T02:12:10.198Z,56.03
2016-11-20T02:13:10.185Z,56.32
2016-11-20T02:14:10.168Z,56.41
2016-11-20T02:15:10.464Z,56.03
2016-11-20T02:16:10.137Z,55.56
2016-11-20T02:17:10.122Z,55.56
2016-11-20T02:18:10.109Z,55.65
2016-11-20T02:19:10.094Z,55.37
2016-11-20T02:20:10.078Z,55.27
2016-11-20T02:21:10.062Z,55.37
2016-11-20T02:22:10.047Z,55.84
2016-11-20T02:23:10.032Z,55.37
2016-11-20T02:24:10.016Z,55.65
2016-11-20T02:25:10.002Z,56.51
2016-11-20T02:26:09.989Z,56.32
2016-11-20T02:27:09.971Z,56.6
2016-11-20T02:28:09.958Z,56.88
2016-11-20T02:29:09.943Z,57.07
2016-11-20T02:30:09.925Z,56.6
2016-11-20T02:31:09.915Z,56.32
2016-11-20T02:32:09.895Z,55.94
2016-11-20T02:33:09.883Z,56.6
2016-11-20T02:34:09.866Z,56.22
2016-11-20T02:35:09.852Z,55.94
2016-11-20T02:36:09.836Z,56.22
2016-11-20T02:37:09.820Z,55.65
2016-11-20T02:38:09.809Z,55.18
2016-11-20T02:39:09.792Z,55.56
2016-11-20T02:40:09.777Z,56.41
2016-11-20T02:41:09.764Z,56.06
2016-11-20T02:42:09.746Z,56.32
2016-11-20T02:43:09.734Z,57.17
2016-11-20T02:44:09.720Z,57.64
2016-11-20T02:45:09.711Z,58.87
2016-11-20T02:46:09.687Z,58.87
2016-11-20T02:47:09.674Z,57.83
2016-11-20T02:48:09.658Z,57.35
2016-11-20T02:49:09.643Z,56.51
2016-11-20T02:50:09.630Z,56.32
2016-11-20T02:51:09.615Z,57.45
2016-11-20T02:52:09.601Z,57.45
2016-11-20T02:53:09.583Z,57.64
2016-11-20T02:54:09.572Z,57.73
2016-11-20T02:55:09.556Z,57.73
2016-11-20T02:56:09.538Z,57.54
2016-11-20T02:57:09.524Z,57.17
2016-11-20T02:58:09.511Z,57.73
2016-11-20T02:59:09.495Z,56.88
2016-11-20T03:00:09.479Z,56.32
2016-11-20T03:01:09.467Z,57.26
2016-11-20T03:02:09.451Z,57.54
2016-11-20T03:03:09.434Z,57.64
2016-11-20T03:04:09.419Z,57.73
2016-11-20T03:05:09.408Z,57.73
2016-11-20T03:06:09.392Z,57.83
2016-11-20T03:07:09.374Z,57.73
2016-11-20T03:08:09.360Z,58.3
2016-11-20T03:09:09.348Z,58.49
2016-11-20T03:10:09.332Z,58.49
2016-11-20T03:11:09.320Z,58.78
2016-11-20T03:12:09.302Z,58.68
2016-11-20T03:13:09.285Z,59.38
2016-11-20T03:14:09.272Z,58.97
2016-11-20T03:15:09.256Z,59.72
2016-11-20T03:16:09.241Z,59.56
2016-11-20T03:17:09.227Z,59.34
2016-11-20T03:18:09.218Z,59.75
2016-11-20T03:19:09.198Z,60
2016-11-20T03:20:09.183Z,60.19
2016-11-20T03:21:09.170Z,60.96
2016-11-20T03:22:09.153Z,61.61
2016-11-20T03:23:09.145Z,60.86
2016-11-20T03:24:09.128Z,61.15
2016-11-20T03:25:09.112Z,61.05
2016-11-20T03:26:09.093Z,60.48
2016-11-20T03:27:09.079Z,60.51
2016-11-20T03:28:09.067Z,60.77
2016-11-20T03:29:09.051Z,61.05
2016-11-20T03:30:09.034Z,61.52
2016-11-20T03:31:09.023Z,61.52
2016-11-20T03:32:09.005Z,61.43
2016-11-20T03:33:08.994Z,60.96
2016-11-20T03:34:08.975Z,60.29
2016-11-20T03:35:08.962Z,60.29
2016-11-20T03:36:08.946Z,60.38
2016-11-20T03:37:08.931Z,61.05
2016-11-20T03:38:08.916Z,60.96
2016-11-20T03:39:09.217Z,60.96
2016-11-20T03:40:08.884Z,61.24
2016-11-20T03:41:08.874Z,61.71
2016-11-20T03:42:08.857Z,62.47
2016-11-20T03:43:08.841Z,62.47
2016-11-20T03:44:08.827Z,62.75
2016-11-20T03:45:08.814Z,62.85
2016-11-20T03:46:08.797Z,62.85
2016-11-20T03:47:08.781Z,63.32
2016-11-20T03:48:08.766Z,63.42
2016-11-20T03:49:08.752Z,63.79
2016-11-20T03:50:08.739Z,62.75
2016-11-20T03:51:08.723Z,63.51
2016-11-20T03:52:08.705Z,63.51
2016-11-20T03:53:08.692Z,63.42
2016-11-20T03:54:08.678Z,63.51
2016-11-20T03:55:08.662Z,62.37
2016-11-20T03:56:08.645Z,62.66
2016-11-20T03:57:08.633Z,64.55
2016-11-20T03:58:08.616Z,64.45
2016-11-20T03:59:08.601Z,65.12
2016-11-20T04:00:08.587Z,64.93
2016-11-20T04:01:08.574Z,65.5
2016-11-20T04:02:08.557Z,65.4
2016-11-20T04:03:08.561Z,66.25
2016-11-20T04:04:08.530Z,66.35
2016-11-20T04:05:08.513Z,66.06
2016-11-20T04:06:08.502Z,66.16
2016-11-20T04:07:08.483Z,65.59
2016-11-20T04:08:08.468Z,64.93
2016-11-20T04:09:08.453Z,65.5
2016-11-20T04:10:08.437Z,64.93
2016-11-20T04:11:08.423Z,65.5
2016-11-20T04:12:08.407Z,65.78
2016-11-20T04:13:08.394Z,65.88
2016-11-20T04:14:08.379Z,65.78
2016-11-20T04:15:08.365Z,66.06
2016-11-20T04:16:08.350Z,66.44
2016-11-20T04:17:08.334Z,66.35
2016-11-20T04:18:08.319Z,66.63
2016-11-20T04:19:08.303Z,66.92
2016-11-20T04:20:08.289Z,67.68
2016-11-20T04:21:08.274Z,67.49
2016-11-20T04:22:08.263Z,68.33
2016-11-20T04:23:08.246Z,67.49
2016-11-20T04:24:08.231Z,66.63
2016-11-20T04:25:08.213Z,66.53
2016-11-20T04:26:08.199Z,67.01
2016-11-20T04:27:08.186Z,66.73
2016-11-20T04:28:08.170Z,67.49
2016-11-20T04:29:08.155Z,67.2
2016-11-20T04:30:08.141Z,67.58
2016-11-20T04:31:08.126Z,67.3
2016-11-20T04:32:08.110Z,67.3
2016-11-20T04:33:08.095Z,67.68
2016-11-20T04:34:08.081Z,68.52
2016-11-20T04:35:08.064Z,68.81
2016-11-20T04:36:08.049Z,69.47
2016-11-20T04:37:08.034Z,69.19
2016-11-20T04:38:08.021Z,69.38
2016-11-20T04:39:08.003Z,69.09
2016-11-20T04:40:07.993Z,70.04
2016-11-20T04:41:07.999Z,70.89
2016-11-20T04:42:07.963Z,71.17
2016-11-20T04:43:07.944Z,72.31
2016-11-20T04:44:07.929Z,72.78
2016-11-20T04:45:07.924Z,72.5
2016-11-20T04:46:07.910Z,74.58
2016-11-20T04:47:07.883Z,74.96
2016-11-20T04:48:07.870Z,74.77
2016-11-20T04:49:07.861Z,74.11
2016-11-20T04:50:07.841Z,75.24
2016-11-20T04:51:07.826Z,76
2016-11-20T04:52:07.809Z,76.19
2016-11-20T04:53:07.792Z,76.48
2016-11-20T04:54:07.783Z,76.57
2016-11-20T04:55:07.764Z,76.14
2016-11-20T04:56:07.751Z,76.29
2016-11-20T04:57:07.737Z,77.04
2016-11-20T04:58:07.722Z,77.23
2016-11-20T04:59:07.708Z,77.33
2016-11-20T05:00:07.689Z,77.7
2016-11-20T05:01:07.676Z,78.94
2016-11-20T05:02:07.659Z,79.13
2016-11-20T05:03:07.646Z,80.74
2016-11-20T05:04:07.634Z,80.93
2016-11-20T05:05:07.616Z,81.87
2016-11-20T05:06:07.602Z,81.49
2016-11-20T05:07:07.584Z,82.29
2016-11-20T05:08:07.569Z,82.34
2016-11-20T05:09:07.554Z,82.63
2016-11-20T05:10:07.540Z,82.15
2016-11-20T05:11:07.525Z,82.15
2016-11-20T05:12:07.508Z,83.01
2016-11-20T05:13:07.492Z,82.82
2016-11-20T05:14:07.480Z,84.33
2016-11-20T05:15:07.463Z,84.05
2016-11-20T05:16:07.449Z,83.76
2016-11-20T05:17:07.433Z,83.48
2016-11-20T05:18:07.416Z,83.29
2016-11-20T05:19:07.406Z,84.61
2016-11-20T05:20:07.392Z,85.28
2016-11-20T05:21:07.382Z,86.04
2016-11-20T05:22:07.361Z,85.85
2016-11-20T05:23:07.343Z,91.15
2016-11-20T05:24:07.329Z,91.43
2016-11-20T05:25:07.446Z,92.43
2016-11-20T05:26:07.299Z,91.19
2016-11-20T05:27:07.287Z,91.29
2016-11-20T05:28:07.272Z,92.99
2016-11-20T05:29:07.256Z,92.05
2016-11-20T05:30:07.238Z,92.43
2016-11-20T05:31:07.224Z,92.14
2016-11-20T05:32:07.209Z,92.33
2016-11-20T05:33:07.197Z,92.33
2016-11-20T05:34:07.180Z,92.14
2016-11-20T05:35:07.164Z,92.43
2016-11-20T05:36:07.151Z,92.52
2016-11-20T05:37:07.135Z,92.24
2016-11-20T05:38:07.121Z,92.43
2016-11-20T05:39:07.106Z,92.99
2016-11-20T05:40:07.120Z,94.79
2016-11-20T05:41:07.076Z,95.36
2016-11-20T05:42:07.060Z,95.36
2016-11-20T05:43:07.045Z,95.26
2016-11-20T05:44:07.029Z,95.07
2016-11-20T05:45:07.017Z,94.89
2016-11-20T05:46:07.033Z,95.45
2016-11-20T05:47:06.986Z,94.98
2016-11-20T05:48:06.970Z,94.32
2016-11-20T05:49:06.958Z,94.13
2016-11-20T05:50:06.943Z,93.56
2016-11-20T05:51:06.930Z,93.46
2016-11-20T05:52:06.912Z,94.89
2016-11-20T05:53:06.900Z,95.36
2016-11-20T05:54:06.882Z,95.07
2016-11-20T05:55:06.868Z,95.36
2016-11-20T05:56:06.851Z,95.07
2016-11-20T05:57:06.840Z,94.7
2016-11-20T05:58:06.821Z,95.74
2016-11-20T05:59:06.809Z,95.83
2016-11-20T06:00:06.794Z,95.93
2016-11-20T06:01:06.778Z,95.07
2016-11-20T06:02:06.768Z,94.04
2016-11-20T06:03:06.747Z,95.64
2016-11-20T06:04:06.734Z,95.07
2016-11-20T06:05:06.720Z,94.7
2016-11-20T06:06:06.706Z,94.98
2016-11-20T06:07:06.690Z,94.89
2016-11-20T06:08:06.677Z,95.07
2016-11-20T06:09:06.662Z,94.89
2016-11-20T06:10:06.647Z,96.02
2016-11-20T06:11:06.630Z,95.36
2016-11-20T06:12:06.628Z,96.31
2016-11-20T06:13:06.601Z,93.46
2016-11-20T06:14:06.587Z,95.26
2016-11-20T06:15:06.572Z,95.07
2016-11-20T06:16:06.560Z,94.98
2016-11-20T06:17:06.545Z,95.93
2016-11-20T06:18:06.534Z,95.45
2016-11-20T06:19:06.514Z,95.55
2016-11-20T06:20:06.499Z,97.54
2016-11-20T06:21:06.484Z,98.01
2016-11-20T06:22:06.472Z,99.24
2016-11-20T06:23:06.457Z,99.52
2016-11-20T06:24:06.444Z,97.82
2016-11-20T06:25:06.428Z,98.86
2016-11-20T06:26:06.418Z,99.05
2016-11-20T06:27:06.550Z,98.96
2016-11-20T06:28:06.510Z,99.24
2016-11-20T06:29:06.376Z,97.73
2016-11-20T06:30:06.667Z,97.82
2016-11-20T06:31:06.343Z,97.63
2016-11-20T06:32:06.329Z,98.3
2016-11-20T06:33:06.319Z,99.81
2016-11-20T06:34:06.299Z,99.99
2016-11-20T06:35:06.282Z,99.9
2016-11-20T06:36:06.282Z,99.99
2016-11-20T06:37:06.252Z,99.99
2016-11-20T06:38:06.238Z,99.99
2016-11-20T06:39:06.224Z,99.99
2016-11-20T06:40:06.207Z,99.99
2016-11-20T06:41:06.195Z,99.99
2016-11-20T06:42:06.178Z,99.99
2016-11-20T06:43:06.165Z,99.99
2016-11-20T06:44:06.148Z,99.99
2016-11-20T06:45:06.138Z,99.99
2016-11-20T06:46:06.119Z,99.99
2016-11-20T06:47:06.115Z,99.99
2016-11-20T06:48:06.093Z,99.99
2016-11-20T06:49:06.078Z,99.99
2016-11-20T06:50:06.061Z,99.99
2016-11-20T06:51:06.077Z,99.99
2016-11-20T06:52:06.034Z,99.99
2016-11-20T06:53:06.017Z,99.99
2016-11-20T06:54:06.008Z,99.99
2016-11-20T06:55:05.995Z,99.99
2016-11-20T06:56:05.986Z,99.99
2016-11-20T06:57:06.273Z,99.99
2016-11-20T06:58:05.948Z,99.99
2016-11-20T06:59:05.930Z,99.99
2016-11-20T07:00:05.918Z,99.99
2016-11-20T07:01:05.938Z,99.99
2016-11-20T07:02:05.899Z,99.99
2016-11-20T07:03:05.877Z,99.99
2016-11-20T07:04:05.860Z,99.99
2016-11-20T07:05:05.843Z,99.99
2016-11-20T07:06:05.831Z,99.99
2016-11-20T07:07:05.814Z,99.99
2016-11-20T07:08:05.799Z,99.99
2016-11-20T07:09:05.786Z,99.99
2016-11-20T07:10:05.772Z,99.99
2016-11-20T07:11:05.758Z,99.99
2016-11-20T07:12:05.743Z,99.99
2016-11-20T07:13:05.730Z,99.99
2016-11-20T07:14:05.715Z,99.99
2016-11-20T07:15:05.698Z,99.99
2016-11-20T07:16:05.684Z,99.99
2016-11-20T07:17:05.670Z,99.99
2016-11-20T07:18:05.657Z,99.99
2016-11-20T07:19:05.639Z,99.99
2016-11-20T07:20:05.629Z,99.99
2016-11-20T07:21:05.611Z,99.99
2016-11-20T07:22:05.599Z,99.99
2016-11-20T07:23:05.582Z,99.99
2016-11-20T07:24:05.570Z,99.99
2016-11-20T07:25:05.555Z,99.99
2016-11-20T07:26:05.542Z,99.99
2016-11-20T07:27:05.530Z,99.99
2016-11-20T07:28:05.516Z,99.99
2016-11-20T07:29:05.536Z,99.99
2016-11-20T07:30:05.486Z,99.99
2016-11-20T07:31:05.475Z,99.99
2016-11-20T07:32:05.773Z,99.99
2016-11-20T07:33:05.443Z,99.99
2016-11-20T07:34:05.427Z,99.99
2016-11-20T07:35:05.412Z,99.99
2016-11-20T07:36:05.400Z,99.99
2016-11-20T07:37:05.383Z,99.99
2016-11-20T07:38:05.507Z,99.99
2016-11-20T07:39:05.361Z,99.99
2016-11-20T07:40:05.345Z,99.99
2016-11-20T07:41:05.642Z,99.99
2016-11-20T07:42:05.313Z,99.99
2016-11-20T07:43:05.299Z,99.99
2016-11-20T07:44:05.285Z,99.99
2016-11-20T07:45:05.270Z,99.99
2016-11-20T07:46:05.256Z,99.99
2016-11-20T07:47:05.243Z,99.99
2016-11-20T07:48:05.229Z,99.99
2016-11-20T07:49:05.212Z,99.99
2016-11-20T07:50:05.200Z,99.99
2016-11-20T07:51:05.185Z,99.99
2016-11-20T07:52:05.169Z,99.99
2016-11-20T07:53:05.155Z,99.99
2016-11-20T07:54:05.144Z,99.99
2016-11-20T07:55:05.134Z,99.99
2016-11-20T07:56:05.116Z,99.99
2016-11-20T07:57:05.101Z,99.99
2016-11-20T07:58:05.087Z,99.99
2016-11-20T07:59:05.075Z,99.99
2016-11-20T08:00:05.057Z,99.99
2016-11-20T08:01:05.046Z,99.99
2016-11-20T08:02:05.036Z,99.99
2016-11-20T08:03:05.015Z,99.99
2016-11-20T08:04:05.001Z,99.99
2016-11-20T08:05:05.001Z,99.99
2016-11-20T08:06:04.977Z,99.99
2016-11-20T08:07:04.960Z,99.99
2016-11-20T08:08:04.951Z,99.99
2016-11-20T08:09:04.934Z,99.99
2016-11-20T08:10:04.916Z,99.99
2016-11-20T08:11:04.902Z,99.99
2016-11-20T08:12:04.891Z,99.99
2016-11-20T08:13:04.901Z,99.99
2016-11-20T08:14:04.858Z,99.99
2016-11-20T08:15:04.846Z,99.99
2016-11-20T08:16:04.829Z,99.99
2016-11-20T08:17:04.815Z,99.99
2016-11-20T08:18:04.800Z,99.99
2016-11-20T08:19:04.787Z,99.99
2016-11-20T08:20:04.778Z,99.99
2016-11-20T08:21:04.758Z,99.99
2016-11-20T08:22:04.744Z,99.99
2016-11-20T08:23:04.728Z,99.99
2016-11-20T08:24:04.713Z,99.99
2016-11-20T08:25:04.697Z,99.99
2016-11-20T08:26:04.685Z,99.99
2016-11-20T08:27:04.669Z,99.99
2016-11-20T08:28:04.652Z,99.99
2016-11-20T08:29:04.642Z,99.99
2016-11-20T08:30:04.626Z,99.99
2016-11-20T08:31:04.615Z,99.99
2016-11-20T08:32:04.601Z,99.99
2016-11-20T08:33:04.584Z,99.99
2016-11-20T08:34:04.570Z,99.99
2016-11-20T08:35:04.561Z,99.99
2016-11-20T08:36:04.542Z,99.99
2016-11-20T08:37:04.526Z,99.99
2016-11-20T08:38:04.513Z,99.99
2016-11-20T08:39:04.500Z,99.99
2016-11-20T08:40:04.491Z,99.99
2016-11-20T08:41:04.471Z,99.99
2016-11-20T08:42:04.455Z,99.99
2016-11-20T08:43:04.440Z,99.99
2016-11-20T08:44:04.425Z,99.99
2016-11-20T08:45:04.413Z,99.99
2016-11-20T08:46:04.398Z,99.99
2016-11-20T08:47:04.384Z,99.99
2016-11-20T08:48:04.369Z,99.99
2016-11-20T08:49:04.358Z,99.99
2016-11-20T08:50:04.343Z,99.99
2016-11-20T08:51:04.329Z,99.99
2016-11-20T08:52:04.311Z,99.99
2016-11-20T08:53:04.301Z,99.99
2016-11-20T08:54:04.284Z,99.99
2016-11-20T08:55:04.272Z,99.99
2016-11-20T08:56:04.259Z,99.99
2016-11-20T08:57:04.243Z,99.99
2016-11-20T08:58:04.228Z,99.99
2016-11-20T08:59:04.217Z,99.99
2016-11-20T09:00:04.323Z,99.99
2016-11-20T09:01:04.186Z,99.99
2016-11-20T09:02:04.171Z,99.99
2016-11-20T09:03:04.160Z,99.99
2016-11-20T09:04:04.143Z,99.99
2016-11-20T09:05:04.129Z,99.99
2016-11-20T09:06:04.116Z,99.99
2016-11-20T09:07:04.103Z,99.99
2016-11-20T09:08:04.086Z,99.99
2016-11-20T09:09:04.074Z,99.99
2016-11-20T09:10:04.061Z,99.99
2016-11-20T09:11:04.047Z,99.99
2016-11-20T09:12:04.033Z,99.99
2016-11-20T09:13:04.031Z,99.99
2016-11-20T09:14:04.005Z,99.99
2016-11-20T09:15:03.991Z,99.99
2016-11-20T09:16:03.977Z,99.99
2016-11-20T09:17:03.963Z,99.99
2016-11-20T09:18:03.950Z,99.99
2016-11-20T09:19:04.248Z,99.99
2016-11-20T09:20:03.926Z,99.99
2016-11-20T09:21:03.909Z,99.99
2016-11-20T09:22:03.892Z,99.99
2016-11-20T09:23:03.879Z,99.99
2016-11-20T09:24:03.868Z,99.99
2016-11-20T09:25:03.852Z,99.99
2016-11-20T09:26:03.837Z,99.99
2016-11-20T09:27:03.823Z,99.99
2016-11-20T09:28:03.812Z,99.99
2016-11-20T09:29:03.799Z,99.99
2016-11-20T09:30:03.788Z,99.99
2016-11-20T09:31:03.770Z,99.99
2016-11-20T09:32:03.756Z,99.99
2016-11-20T09:33:03.747Z,99.99
2016-11-20T09:34:03.727Z,99.99
2016-11-20T09:35:03.717Z,99.99
2016-11-20T09:36:03.700Z,99.99
2016-11-20T09:37:03.688Z,99.99
2016-11-20T09:38:03.696Z,99.99
2016-11-20T09:39:03.660Z,99.99
2016-11-20T09:40:03.650Z,99.99
2016-11-20T09:41:03.635Z,99.99
2016-11-20T09:42:03.620Z,99.99
2016-11-20T09:43:03.612Z,99.99
2016-11-20T09:44:03.593Z,99.99
2016-11-20T09:45:03.583Z,99.99
2016-11-20T09:46:03.566Z,99.99
2016-11-20T09:47:03.804Z,99.99
2016-11-20T09:48:03.538Z,99.99
2016-11-20T09:49:03.525Z,99.99
2016-11-20T09:50:03.513Z,99.99
2016-11-20T09:51:03.499Z,99.99
2016-11-20T09:52:03.485Z,99.99
2016-11-20T09:53:03.505Z,99.99
2016-11-20T09:54:03.457Z,99.99
2016-11-20T09:55:03.447Z,99.99
2016-11-20T09:56:03.431Z,99.99
2016-11-20T09:57:03.417Z,99.99
2016-11-20T09:58:03.407Z,99.99
2016-11-20T09:59:03.393Z,99.99
2016-11-20T10:00:03.380Z,99.99
2016-11-20T10:01:03.366Z,99.99
2016-11-20T10:02:03.352Z,99.99
2016-11-20T10:03:03.339Z,99.99
2016-11-20T10:04:03.329Z,99.99
2016-11-20T10:05:14.502Z,99.99
2016-11-20T10:06:14.490Z,99.99
2016-11-20T10:07:14.476Z,99.99
2016-11-20T10:08:14.469Z,99.99
2016-11-20T10:09:14.449Z,99.99
2016-11-20T10:10:14.440Z,99.99
2016-11-20T10:11:14.433Z,99.99
2016-11-20T10:12:14.412Z,99.99
2016-11-20T10:13:14.399Z,99.99
2016-11-20T10:14:14.393Z,99.99
2016-11-20T10:15:14.379Z,99.99
2016-11-20T10:16:14.362Z,99.99
2016-11-20T10:17:14.356Z,99.99
2016-11-20T10:18:14.339Z,99.99
2016-11-20T10:19:14.324Z,99.99
2016-11-20T10:20:14.318Z,99.99
2016-11-20T10:21:14.300Z,99.99
2016-11-20T10:22:14.288Z,99.99
2016-11-20T10:23:14.281Z,99.99
2016-11-20T10:24:14.264Z,99.99
2016-11-20T10:25:14.253Z,99.99
2016-11-20T10:26:14.240Z,99.99
2016-11-20T10:27:14.226Z,99.99
2016-11-20T10:28:14.215Z,99.99
2016-11-20T10:29:14.203Z,99.99
2016-11-20T10:30:14.188Z,99.99
2016-11-20T10:31:14.179Z,99.99
2016-11-20T10:32:14.167Z,99.99
2016-11-20T10:33:14.158Z,99.99
2016-11-20T10:34:14.144Z,99.99
2016-11-20T10:35:14.132Z,99.99
2016-11-20T10:36:14.120Z,99.99
2016-11-20T10:37:14.108Z,99.99
2016-11-20T10:38:14.097Z,99.99
2016-11-20T10:39:14.085Z,99.99
2016-11-20T10:40:14.076Z,99.99
2016-11-20T10:41:14.060Z,99.99
2016-11-20T10:42:14.051Z,99.99
2016-11-20T10:43:14.038Z,99.99
2016-11-20T10:44:14.026Z,99.99
2016-11-20T10:45:14.015Z,99.99
2016-11-20T10:46:14.005Z,99.99
2016-11-20T10:47:13.992Z,99.99
2016-11-20T10:48:13.979Z,99.99
2016-11-20T10:49:13.970Z,99.99
2016-11-20T10:50:13.959Z,99.99
2016-11-20T10:51:13.946Z,99.99
2016-11-20T10:52:13.933Z,99.99
2016-11-20T10:53:13.922Z,99.99
2016-11-20T10:54:13.910Z,99.99
2016-11-20T10:55:13.900Z,99.99
2016-11-20T10:56:13.887Z,99.99
2016-11-20T10:57:13.875Z,99.99
2016-11-20T10:58:13.865Z,99.99
2016-11-20T10:59:13.854Z,99.99
2016-11-20T11:00:13.841Z,99.99
2016-11-20T11:01:13.832Z,99.99
2016-11-20T11:02:13.821Z,99.99
2016-11-20T11:03:13.809Z,99.99
2016-11-20T11:04:13.797Z,99.99
2016-11-20T11:05:13.789Z,99.99
2016-11-20T11:06:13.774Z,99.99
2016-11-20T11:07:13.769Z,99.99
2016-11-20T11:08:13.750Z,99.99
2016-11-20T11:09:13.741Z,99.99
2016-11-20T11:10:13.729Z,99.99
2016-11-20T11:11:13.716Z,99.99
2016-11-20T11:12:13.704Z,99.99
2016-11-20T11:13:13.695Z,99.99
2016-11-20T11:14:13.686Z,99.99
2016-11-20T11:15:13.672Z,99.99
2016-11-20T11:16:13.661Z,99.99
2016-11-20T11:17:13.650Z,99.99
2016-11-20T11:18:13.638Z,99.99
2016-11-20T11:19:13.631Z,99.99
2016-11-20T11:20:13.619Z,99.99
2016-11-20T11:21:13.603Z,99.99
2016-11-20T11:22:13.597Z,99.99
2016-11-20T11:23:13.584Z,99.99
2016-11-20T11:24:13.573Z,99.99
2016-11-20T11:25:13.561Z,99.99
2016-11-20T11:26:13.549Z,99.99
2016-11-20T11:27:13.543Z,99.99
2016-11-20T11:28:13.531Z,99.99
2016-11-20T11:29:13.517Z,99.99
2016-11-20T11:30:13.508Z,99.99
2016-11-20T11:31:13.511Z,99.99
2016-11-20T11:32:13.485Z,99.99
2016-11-20T11:33:13.475Z,99.99
2016-11-20T11:34:13.465Z,99.99
2016-11-20T11:35:13.453Z,99.99
2016-11-20T11:36:13.442Z,99.99
2016-11-20T11:37:13.432Z,99.99
2016-11-20T11:38:13.419Z,99.99
2016-11-20T11:39:13.413Z,99.99
2016-11-20T11:40:13.401Z,99.99
2016-11-20T11:41:13.390Z,99.99
2016-11-20T11:42:13.381Z,99.99
2016-11-20T11:43:13.683Z,99.99
2016-11-20T11:44:13.361Z,99.99
2016-11-20T11:45:13.347Z,99.99
2016-11-20T11:46:13.336Z,99.99
2016-11-20T11:47:13.324Z,99.99
2016-11-20T11:48:13.633Z,99.99
2016-11-20T11:49:13.305Z,99.99
2016-11-20T11:50:13.294Z,99.99
2016-11-20T11:51:13.285Z,99.99
2016-11-20T11:52:13.275Z,99.99
2016-11-20T11:53:13.271Z,99.99
2016-11-20T11:54:13.251Z,99.99
2016-11-20T11:55:13.244Z,99.99
2016-11-20T11:56:13.230Z,99.99
2016-11-20T11:57:13.222Z,99.99
2016-11-20T11:58:13.210Z,99.99
2016-11-20T11:59:13.200Z,99.99
2016-11-20T12:00:13.189Z,99.99
2016-11-20T12:01:13.176Z,99.99
2016-11-20T12:02:13.190Z,99.99
2016-11-20T12:03:13.159Z,99.99
2016-11-20T12:04:13.147Z,99.99
2016-11-20T12:05:13.136Z,99.99
2016-11-20T12:06:13.126Z,99.99
2016-11-20T12:07:13.115Z,99.99
2016-11-20T12:08:13.105Z,99.99
2016-11-20T12:09:13.096Z,99.99
2016-11-20T12:10:13.293Z,99.99
2016-11-20T12:11:13.076Z,99.99
2016-11-20T12:12:13.108Z,99.99
2016-11-20T12:13:13.054Z,99.99
2016-11-20T12:14:13.042Z,99.99
2016-11-20T12:15:13.032Z,99.99
2016-11-20T12:16:13.019Z,99.99
2016-11-20T12:17:13.014Z,99.99
2016-11-20T12:18:12.997Z,99.99
2016-11-20T12:19:12.988Z,99.99
2016-11-20T12:20:12.985Z,99.99
2016-11-20T12:21:12.968Z,99.99
2016-11-20T12:22:12.958Z,99.99
2016-11-20T12:23:12.945Z,99.99
2016-11-20T12:24:13.251Z,99.99
2016-11-20T12:25:12.926Z,99.99
2016-11-20T12:26:13.447Z,99.99
2016-11-20T12:27:12.902Z,99.99
2016-11-20T12:28:12.893Z,99.99
2016-11-20T12:29:12.884Z,99.99
2016-11-20T12:30:12.873Z,99.99
2016-11-20T12:31:12.861Z,99.99
2016-11-20T12:32:12.851Z,99.99
2016-11-20T12:33:12.842Z,99.99
2016-11-20T12:34:12.832Z,99.99
2016-11-20T12:35:12.818Z,99.99
2016-11-20T12:36:12.810Z,99.99
2016-11-20T12:37:12.797Z,99.99
2016-11-20T12:38:12.801Z,99.99
2016-11-20T12:39:12.776Z,99.99
2016-11-20T12:40:12.772Z,99.99
2016-11-20T12:41:12.757Z,99.99
2016-11-20T12:42:12.745Z,99.99
2016-11-20T12:43:12.736Z,99.99
2016-11-20T12:44:12.730Z,99.99
2016-11-20T12:45:12.712Z,99.99
2016-11-20T12:46:12.703Z,99.99
2016-11-20T12:47:12.693Z,99.99
2016-11-20T12:48:12.683Z,99.99
2016-11-20T12:49:12.670Z,99.99
2016-11-20T12:50:12.660Z,99.99
2016-11-20T12:51:12.649Z,99.99
2016-11-20T12:52:12.639Z,99.99
2016-11-20T12:53:12.628Z,99.99
2016-11-20T12:54:12.616Z,99.99